createdAt,value
2019-05-09T00:01:03.964Z,11.18
2019-05-09T00:03:33.598Z,11.19
2019-05-09T00:06:04.642Z,11.18
2019-05-09T00:08:33.627Z,11.19
2019-05-09T00:11:03.679Z,11.18
2019-05-09T00:13:34.153Z,11.15
2019-05-09T00:16:03.808Z,11.13
2019-05-09T00:18:33.719Z,11.15
2019-05-09T00:21:13.326Z,11.15
2019-05-09T00:23:43.714Z,11.15
2019-05-09T00:26:13.536Z,11.15
2019-05-09T00:28:45.675Z,11.15
2019-05-09T00:31:27.175Z,11.16
2019-05-09T00:33:59.065Z,11.15
2019-05-09T00:36:28.165Z,11.14
2019-05-09T00:38:57.275Z,11.14
2019-05-09T00:41:26.386Z,11.12
2019-05-09T00:44:03.375Z,11.13
2019-05-09T00:46:43.111Z,11.11
2019-05-09T00:49:16.926Z,11.10
2019-05-09T00:51:46.043Z,11.08
2019-05-09T00:54:15.197Z,11.07
2019-05-09T00:56:44.309Z,11.08
2019-05-09T00:59:13.646Z,11.05
2019-05-09T01:01:43.665Z,11.02
2019-05-09T01:04:13.628Z,11.00
2019-05-09T01:06:43.495Z,10.99
2019-05-09T01:09:13.675Z,10.99
2019-05-09T01:11:43.958Z,10.99
2019-05-09T01:14:14.216Z,10.98
2019-05-09T01:16:44.148Z,10.97
2019-05-09T01:19:14.192Z,10.94
2019-05-09T01:21:43.958Z,10.92
2019-05-09T01:24:14.410Z,10.91
2019-05-09T01:26:43.696Z,10.92
2019-05-09T01:29:13.748Z,10.87
2019-05-09T01:31:43.716Z,10.85
2019-05-09T01:34:25.583Z,10.83
2019-05-09T01:37:07.724Z,10.82
2019-05-09T01:39:37.451Z,10.81
2019-05-09T01:42:07.082Z,10.78
2019-05-09T01:44:36.204Z,10.76
2019-05-09T01:47:05.327Z,10.74
2019-05-09T01:49:34.491Z,10.74
2019-05-09T01:52:03.812Z,10.73
2019-05-09T01:54:34.597Z,10.70
2019-05-09T01:57:03.704Z,10.65
2019-05-09T01:59:33.899Z,10.65
2019-05-09T02:02:08.287Z,10.64
2019-05-09T02:04:34.900Z,10.64
2019-05-09T02:07:04.431Z,10.63
2019-05-09T02:09:34.446Z,10.58
2019-05-09T02:12:04.164Z,10.57
2019-05-09T02:14:58.272Z,10.56
2019-05-09T02:18:01.309Z,10.53
2019-05-09T02:20:26.290Z,10.51
2019-05-09T02:22:55.423Z,10.48
2019-05-09T02:25:24.556Z,10.47
2019-05-09T02:27:55.226Z,10.42
2019-05-09T02:30:25.459Z,10.39
2019-05-09T02:32:54.913Z,10.36
2019-05-09T02:35:24.052Z,10.34
2019-05-09T02:37:53.196Z,10.34
2019-05-09T02:40:22.321Z,10.32
2019-05-09T02:42:51.422Z,10.32
2019-05-09T02:45:21.241Z,10.33
2019-05-09T02:47:50.344Z,10.31
2019-05-09T02:50:19.823Z,10.32
2019-05-09T02:52:49.023Z,10.30
2019-05-09T02:55:18.650Z,10.29
2019-05-09T02:57:49.469Z,10.27
2019-05-09T03:00:28.876Z,10.25
2019-05-09T03:03:19.553Z,10.21
2019-05-09T03:05:48.753Z,10.20
2019-05-09T03:08:19.165Z,10.20
2019-05-09T03:10:49.144Z,10.20
2019-05-09T03:13:19.232Z,10.19
2019-05-09T03:15:50.418Z,10.20
2019-05-09T03:18:19.564Z,10.18
2019-05-09T03:21:10.374Z,9.94
2019-05-09T03:23:39.603Z,10.14
2019-05-09T03:26:10.407Z,10.11
2019-05-09T03:28:53.566Z,10.09
2019-05-09T03:31:23.338Z,10.11
2019-05-09T03:33:52.467Z,10.07
2019-05-09T03:36:21.583Z,10.06
2019-05-09T03:38:50.676Z,10.06
2019-05-09T03:41:19.780Z,10.05
2019-05-09T03:43:48.890Z,10.01
2019-05-09T03:46:31.035Z,9.99
2019-05-09T03:49:00.952Z,9.99
2019-05-09T03:51:30.088Z,10.00
2019-05-09T03:53:59.217Z,10.01
2019-05-09T03:56:33.149Z,10.03
2019-05-09T03:59:02.259Z,10.03
2019-05-09T04:01:31.377Z,10.03
2019-05-09T04:04:00.511Z,10.05
2019-05-09T04:06:29.918Z,10.05
2019-05-09T04:08:59.064Z,10.04
2019-05-09T04:11:28.202Z,10.05
2019-05-09T04:14:01.954Z,10.06
2019-05-09T04:16:31.097Z,10.09
2019-05-09T04:19:00.211Z,10.09
2019-05-09T04:21:29.343Z,10.09
2019-05-09T04:23:58.682Z,10.09
2019-05-09T04:26:57.446Z,10.10
2019-05-09T04:29:28.422Z,10.11
2019-05-09T04:31:57.593Z,10.09
2019-05-09T04:34:27.510Z,10.09
2019-05-09T04:36:57.581Z,10.08
2019-05-09T04:39:28.336Z,10.09
2019-05-09T04:42:03.423Z,10.10
2019-05-09T04:44:33.973Z,10.10
2019-05-09T04:47:03.784Z,10.10
2019-05-09T04:49:39.284Z,10.10
2019-05-09T04:52:04.039Z,10.12
2019-05-09T04:54:33.155Z,10.14
2019-05-09T04:57:02.281Z,10.14
2019-05-09T04:59:31.388Z,10.15
2019-05-09T05:02:31.678Z,10.16
2019-05-09T05:05:00.877Z,10.16
2019-05-09T05:07:30.027Z,10.12
2019-05-09T05:09:59.164Z,10.12
2019-05-09T05:12:28.336Z,10.11
2019-05-09T05:14:58.097Z,10.09
2019-05-09T05:17:28.276Z,10.09
2019-05-09T05:19:58.785Z,10.11
2019-05-09T05:22:33.721Z,10.14
2019-05-09T05:25:04.330Z,10.17
2019-05-09T05:27:33.451Z,10.20
2019-05-09T05:30:02.546Z,10.25
2019-05-09T05:33:02.923Z,10.30
2019-05-09T05:35:48.475Z,10.34
2019-05-09T05:38:17.793Z,10.39
2019-05-09T05:40:49.693Z,10.43
2019-05-09T05:43:17.870Z,10.49
2019-05-09T05:45:58.456Z,10.54
2019-05-09T05:48:29.784Z,10.60
2019-05-09T05:50:58.948Z,10.69
2019-05-09T05:53:28.088Z,10.79
2019-05-09T05:55:58.062Z,10.89
2019-05-09T05:58:28.179Z,10.98
2019-05-09T06:00:58.876Z,11.10
2019-05-09T06:03:28.405Z,11.23
2019-05-09T06:05:58.498Z,11.34
2019-05-09T06:08:27.981Z,11.43
2019-05-09T06:10:57.714Z,11.50
2019-05-09T06:13:27.582Z,11.53
2019-05-09T06:15:58.658Z,11.62
2019-05-09T06:18:27.952Z,11.63
2019-05-09T06:20:58.343Z,11.65
2019-05-09T06:23:28.326Z,11.60
2019-05-09T06:25:58.750Z,11.60
2019-05-09T06:28:28.330Z,11.60
2019-05-09T06:30:58.531Z,11.53
2019-05-09T06:33:28.608Z,11.51
2019-05-09T06:35:58.894Z,11.59
2019-05-09T06:38:28.463Z,11.85
2019-05-09T06:40:58.210Z,11.97
2019-05-09T06:43:29.788Z,12.10
2019-05-09T06:46:20.916Z,12.19
2019-05-09T06:48:50.084Z,12.24
2019-05-09T06:51:21.355Z,12.25
2019-05-09T06:53:51.680Z,12.26
2019-05-09T06:56:20.811Z,12.32
2019-05-09T06:58:49.960Z,12.39
2019-05-09T07:01:44.064Z,12.31
2019-05-09T07:04:19.692Z,12.24
2019-05-09T07:06:52.704Z,12.12
2019-05-09T07:09:27.830Z,12.11
2019-05-09T07:11:55.609Z,12.12
2019-05-09T07:14:43.628Z,12.13
2019-05-09T07:17:12.769Z,12.26
2019-05-09T07:19:43.923Z,12.31
2019-05-09T07:22:28.063Z,12.36
2019-05-09T07:25:10.472Z,12.51
2019-05-09T07:27:39.062Z,12.51
2019-05-09T07:30:19.397Z,12.69
2019-05-09T07:33:00.935Z,12.76
2019-05-09T07:35:30.031Z,12.83
2019-05-09T07:37:59.179Z,13.15
2019-05-09T07:40:30.728Z,13.43
2019-05-09T07:42:59.221Z,13.70
2019-05-09T07:45:28.348Z,13.92
2019-05-09T07:47:58.363Z,14.22
2019-05-09T07:50:27.926Z,14.31
2019-05-09T07:52:58.144Z,14.09
2019-05-09T07:55:27.621Z,14.70
2019-05-09T07:57:59.156Z,14.85
2019-05-09T08:00:34.416Z,14.82
2019-05-09T08:03:03.521Z,14.47
2019-05-09T08:05:32.825Z,14.26
2019-05-09T08:08:01.959Z,14.16
2019-05-09T08:10:33.205Z,13.89
2019-05-09T08:13:01.981Z,13.91
2019-05-09T08:15:31.097Z,14.02
2019-05-09T08:18:00.285Z,14.17
2019-05-09T08:20:29.431Z,14.04
2019-05-09T08:23:01.873Z,14.19
2019-05-09T08:25:29.430Z,14.31
2019-05-09T08:27:59.010Z,14.34
2019-05-09T08:30:35.326Z,14.27
2019-05-09T08:32:59.870Z,14.16
2019-05-09T08:35:29.302Z,14.31
2019-05-09T08:37:58.641Z,14.51
2019-05-09T08:40:28.564Z,14.72
2019-05-09T08:42:59.207Z,15.18
2019-05-09T08:45:31.314Z,15.54
2019-05-09T08:47:59.303Z,15.84
2019-05-09T08:50:38.662Z,15.88
2019-05-09T08:53:08.184Z,15.91
2019-05-09T08:56:58.159Z,16.16
2019-05-09T08:59:27.700Z,16.30
2019-05-09T09:02:12.258Z,16.69
2019-05-09T09:04:29.438Z,16.80
2019-05-09T09:06:58.813Z,16.66
2019-05-09T09:09:28.630Z,16.48
2019-05-09T09:11:58.459Z,16.17
2019-05-09T09:14:28.039Z,16.25
2019-05-09T09:16:57.699Z,16.26
2019-05-09T09:19:28.056Z,16.46
2019-05-09T09:22:00.475Z,16.31
2019-05-09T09:24:28.487Z,16.32
2019-05-09T09:26:57.788Z,16.43
2019-05-09T09:29:28.395Z,16.35
2019-05-09T09:31:57.818Z,16.47
2019-05-09T09:34:29.842Z,16.33
2019-05-09T09:37:02.990Z,16.04
2019-05-09T09:39:31.266Z,15.70
2019-05-09T09:41:59.879Z,15.51
2019-05-09T09:44:29.106Z,15.35
2019-05-09T09:46:58.357Z,15.17
2019-05-09T09:49:29.308Z,15.11
2019-05-09T09:51:58.500Z,15.04
2019-05-09T09:54:28.227Z,15.14
2019-05-09T09:56:58.485Z,15.22
2019-05-09T10:02:27.914Z,15.10
2019-05-09T10:04:57.350Z,15.13
2019-05-09T10:07:27.922Z,15.29
2019-05-09T10:09:58.382Z,15.55
2019-05-09T10:12:28.584Z,15.85
2019-05-09T10:15:08.354Z,16.27
2019-05-09T10:18:07.482Z,16.60
2019-05-09T10:20:44.352Z,16.78
2019-05-09T10:23:18.800Z,16.78
2019-05-09T10:25:44.534Z,16.55
2019-05-09T10:28:13.694Z,16.43
2019-05-09T10:30:42.809Z,16.41
2019-05-09T10:33:12.057Z,16.50
2019-05-09T10:35:41.179Z,16.77
2019-05-09T10:38:10.363Z,16.97
2019-05-09T10:40:40.398Z,16.76
2019-05-09T10:43:36.862Z,16.83
2019-05-09T10:46:19.276Z,16.71
2019-05-09T10:48:58.431Z,16.56
2019-05-09T10:51:26.772Z,16.60
2019-05-09T10:53:58.497Z,16.82
2019-05-09T10:56:28.017Z,16.82
2019-05-09T10:58:58.422Z,16.86
2019-05-09T11:01:29.525Z,16.84
2019-05-09T11:03:59.287Z,17.03
2019-05-09T11:06:29.003Z,17.26
2019-05-09T11:08:58.794Z,17.30
2019-05-09T11:11:28.588Z,17.43
2019-05-09T11:13:58.959Z,17.32
2019-05-09T11:16:42.340Z,17.35
2019-05-09T11:18:59.168Z,17.35
2019-05-09T11:21:28.959Z,17.44
2019-05-09T11:23:58.705Z,17.15
2019-05-09T11:26:28.757Z,17.15
2019-05-09T11:28:58.746Z,17.06
2019-05-09T11:31:29.620Z,15.90
2019-05-09T11:33:59.129Z,15.64
2019-05-09T11:36:28.249Z,17.24
2019-05-09T11:39:00.360Z,17.29
2019-05-09T11:41:29.695Z,17.18
2019-05-09T11:43:59.719Z,17.32
2019-05-09T11:46:29.124Z,17.40
2019-05-09T11:48:58.773Z,17.58
2019-05-09T11:51:29.372Z,17.70
2019-05-09T11:53:59.595Z,17.87
2019-05-09T11:56:28.807Z,17.92
2019-05-09T11:58:58.198Z,17.79
2019-05-09T12:01:29.326Z,17.89
2019-05-09T12:03:58.267Z,17.95
2019-05-09T12:06:28.997Z,18.17
2019-05-09T12:08:59.067Z,18.12
2019-05-09T12:11:28.912Z,17.92
2019-05-09T12:13:58.487Z,17.94
2019-05-09T12:16:28.081Z,18.02
2019-05-09T12:18:58.344Z,17.86
2019-05-09T12:21:28.494Z,17.84
2019-05-09T12:23:58.565Z,17.91
2019-05-09T12:26:29.106Z,18.10
2019-05-09T12:28:58.804Z,18.15
2019-05-09T12:31:28.857Z,18.01
2019-05-09T12:33:59.403Z,17.88
2019-05-09T12:36:28.994Z,17.81
2019-05-09T12:38:59.108Z,17.64
2019-05-09T12:41:31.593Z,17.51
2019-05-09T12:43:59.573Z,17.50
2019-05-09T12:46:28.746Z,17.53
2019-05-09T12:48:59.125Z,17.41
2019-05-09T12:51:28.758Z,17.24
2019-05-09T12:53:58.201Z,17.30
2019-05-09T12:56:28.494Z,17.23
2019-05-09T12:58:58.149Z,17.19
2019-05-09T13:01:27.482Z,17.15
2019-05-09T13:03:58.257Z,17.18
2019-05-09T13:06:29.504Z,17.17
2019-05-09T13:08:58.872Z,17.34
2019-05-09T13:11:28.220Z,17.43
2019-05-09T13:13:57.422Z,17.56
2019-05-09T13:16:45.475Z,17.61
2019-05-09T13:19:07.586Z,17.40
2019-05-09T13:21:38.984Z,17.21
2019-05-09T13:24:08.330Z,17.26
2019-05-09T13:26:38.579Z,17.26
2019-05-09T13:29:08.269Z,17.27
2019-05-09T13:31:39.281Z,17.35
2019-05-09T13:34:08.370Z,17.34
2019-05-09T13:36:37.522Z,17.34
2019-05-09T13:39:09.609Z,17.17
2019-05-09T13:41:39.699Z,17.07
2019-05-09T13:44:13.715Z,17.01
2019-05-09T13:46:39.766Z,16.98
2019-05-09T13:49:14.821Z,16.99
2019-05-09T13:51:48.504Z,16.99
2019-05-09T13:54:10.734Z,16.93
2019-05-09T13:56:39.885Z,16.71
2019-05-09T13:59:09.023Z,16.65
2019-05-09T14:01:38.304Z,16.67
2019-05-09T14:04:08.089Z,16.78
2019-05-09T14:06:38.690Z,16.79
2019-05-09T14:09:10.278Z,16.84
2019-05-09T14:11:39.915Z,16.82
2019-05-09T14:14:09.054Z,16.72
2019-05-09T14:16:39.098Z,16.77
2019-05-09T14:19:29.979Z,16.82
2019-05-09T14:21:40.074Z,16.69
2019-05-09T14:24:14.375Z,16.66
2019-05-09T14:26:40.384Z,16.80
2019-05-09T14:29:12.853Z,16.71
2019-05-09T14:31:40.669Z,16.67
2019-05-09T14:34:09.932Z,16.50
2019-05-09T14:36:44.442Z,16.51
2019-05-09T14:39:10.730Z,16.47
2019-05-09T14:41:40.069Z,16.50
2019-05-09T14:44:09.638Z,16.58
2019-05-09T14:46:40.595Z,16.60
2019-05-09T14:49:09.973Z,16.57
2019-05-09T14:51:39.208Z,16.46
2019-05-09T14:54:08.618Z,16.52
2019-05-09T14:56:41.796Z,16.08
2019-05-09T14:59:09.753Z,16.43
2019-05-09T15:01:43.626Z,16.35
2019-05-09T15:04:10.251Z,16.29
2019-05-09T15:06:39.909Z,16.11
2019-05-09T15:09:09.511Z,16.12
2019-05-09T15:11:39.776Z,16.07
2019-05-09T15:14:09.618Z,16.04
2019-05-09T15:16:39.447Z,15.99
2019-05-09T15:19:11.245Z,14.47
2019-05-09T15:21:40.765Z,16.12
2019-05-09T15:24:09.981Z,16.10
2019-05-09T15:26:39.323Z,16.05
2019-05-09T15:29:08.533Z,15.89
2019-05-09T15:31:39.259Z,15.91
2019-05-09T15:34:10.236Z,15.84
2019-05-09T15:36:39.556Z,15.89
2019-05-09T15:39:08.905Z,15.97
2019-05-09T15:41:38.679Z,16.06
2019-05-09T15:44:08.625Z,16.22
2019-05-09T15:46:48.573Z,16.35
2019-05-09T15:49:18.437Z,16.26
2019-05-09T15:51:47.940Z,16.28
2019-05-09T15:54:17.896Z,16.36
2019-05-09T15:56:48.358Z,16.42
2019-05-09T15:59:18.438Z,16.04
2019-05-09T16:01:49.227Z,16.47
2019-05-09T16:04:18.619Z,16.40
2019-05-09T16:06:50.393Z,16.41
2019-05-09T16:09:18.681Z,16.35
2019-05-09T16:11:48.505Z,16.26
2019-05-09T16:14:18.598Z,16.11
2019-05-09T16:16:48.053Z,16.15
2019-05-09T16:19:17.291Z,16.14
2019-05-09T16:21:47.736Z,16.11
2019-05-09T16:24:18.739Z,16.16
2019-05-09T16:26:48.741Z,16.14
2019-05-09T16:29:18.209Z,16.00
2019-05-09T16:31:48.094Z,15.89
2019-05-09T16:34:17.982Z,15.77
2019-05-09T16:36:48.178Z,15.76
2019-05-09T16:39:18.079Z,15.74
2019-05-09T16:41:48.402Z,15.76
2019-05-09T16:44:18.616Z,15.74
2019-05-09T16:46:48.592Z,15.70
2019-05-09T16:49:19.866Z,15.71
2019-05-09T16:51:48.892Z,15.57
2019-05-09T16:54:18.347Z,15.53
2019-05-09T16:56:47.588Z,15.59
2019-05-09T16:59:18.890Z,15.68
2019-05-09T17:01:50.345Z,15.61
2019-05-09T17:04:19.406Z,15.64
2019-05-09T17:06:49.720Z,15.65
2019-05-09T17:09:19.102Z,15.70
2019-05-09T17:11:48.358Z,15.59
2019-05-09T17:14:19.250Z,15.47
2019-05-09T17:16:53.053Z,15.45
2019-05-09T17:19:22.019Z,15.44
2019-05-09T17:22:07.629Z,15.53
2019-05-09T17:24:38.022Z,15.48
2019-05-09T17:27:08.688Z,15.48
2019-05-09T17:29:38.451Z,15.46
2019-05-09T17:32:07.936Z,15.43
2019-05-09T17:34:38.089Z,15.43
2019-05-09T17:37:08.026Z,14.92
2019-05-09T17:39:38.611Z,15.34
2019-05-09T17:42:07.878Z,15.26
2019-05-09T17:44:36.994Z,15.30
2019-05-09T17:47:08.286Z,15.29
2019-05-09T17:49:44.246Z,15.34
2019-05-09T17:52:13.639Z,14.64
2019-05-09T17:54:43.059Z,15.41
2019-05-09T17:57:12.250Z,15.36
2019-05-09T17:59:41.426Z,15.40
2019-05-09T18:02:10.585Z,15.44
2019-05-09T18:04:39.806Z,15.42
2019-05-09T18:07:09.042Z,15.40
2019-05-09T18:09:38.230Z,15.37
2019-05-09T18:12:08.471Z,15.34
2019-05-09T18:14:39.412Z,15.28
2019-05-09T18:17:08.730Z,15.24
2019-05-09T18:19:40.821Z,15.24
2019-05-09T18:25:27.765Z,15.20
2019-05-09T18:27:57.507Z,15.16
2019-05-09T18:30:28.892Z,15.18
2019-05-09T18:33:35.246Z,15.20
2019-05-09T18:36:04.401Z,15.21
2019-05-09T18:38:34.677Z,15.21
2019-05-09T18:41:07.135Z,15.24
2019-05-09T18:43:34.929Z,15.23
2019-05-09T18:46:04.058Z,15.22
2019-05-09T18:48:33.183Z,15.20
2019-05-09T18:51:02.358Z,15.15
2019-05-09T18:53:31.554Z,15.13
2019-05-09T18:56:00.721Z,15.07
2019-05-09T18:58:29.869Z,15.03
2019-05-09T19:00:59.001Z,14.97
2019-05-09T19:03:28.209Z,14.93
2019-05-09T19:05:57.351Z,14.83
2019-05-09T19:08:26.484Z,14.80
2019-05-09T19:10:55.660Z,14.74
2019-05-09T19:13:24.783Z,14.70
2019-05-09T19:16:19.221Z,14.65
2019-05-09T19:19:22.519Z,14.61
2019-05-09T19:21:57.753Z,14.55
2019-05-09T19:24:26.998Z,14.51
2019-05-09T19:26:56.187Z,14.44
2019-05-09T19:29:25.326Z,14.39
2019-05-09T19:31:54.659Z,14.31
2019-05-09T19:34:23.848Z,14.23
2019-05-09T19:36:52.993Z,14.14
2019-05-09T19:39:22.935Z,14.06
2019-05-09T19:41:52.139Z,13.08
2019-05-09T19:44:21.252Z,13.88
2019-05-09T19:46:50.471Z,13.83
2019-05-09T19:49:19.708Z,13.79
2019-05-09T19:51:48.912Z,13.73
2019-05-09T19:54:18.222Z,13.65
2019-05-09T19:56:47.471Z,13.57
2019-05-09T19:59:16.596Z,13.51
2019-05-09T20:01:45.735Z,13.41
2019-05-09T20:04:14.895Z,13.31
2019-05-09T20:06:44.003Z,13.22
2019-05-09T20:09:22.388Z,13.17
2019-05-09T20:11:58.182Z,13.10
2019-05-09T20:14:30.873Z,13.03
2019-05-09T20:17:00.024Z,12.98
2019-05-09T20:19:29.169Z,12.95
2019-05-09T20:21:58.359Z,12.87
2019-05-09T20:24:27.518Z,12.81
2019-05-09T20:26:56.697Z,12.74
2019-05-09T20:29:25.858Z,12.69
2019-05-09T20:31:55.146Z,12.62
2019-05-09T20:34:24.300Z,12.57
2019-05-09T20:36:53.487Z,12.53
2019-05-09T20:39:22.818Z,12.48
2019-05-09T20:41:52.114Z,12.42
2019-05-09T20:44:21.439Z,12.36
2019-05-09T20:46:50.780Z,12.33
2019-05-09T20:49:20.183Z,12.30
2019-05-09T20:51:49.608Z,10.81
2019-05-09T20:54:21.386Z,12.27
2019-05-09T20:56:50.125Z,12.27
2019-05-09T20:59:19.489Z,12.26
2019-05-09T21:01:48.788Z,12.25
2019-05-09T21:04:18.148Z,12.20
2019-05-09T21:06:47.502Z,12.12
2019-05-09T21:09:16.843Z,12.07
2019-05-09T21:11:46.199Z,12.02
2019-05-09T21:14:15.516Z,12.00
2019-05-09T21:16:44.838Z,11.94
2019-05-09T21:19:14.155Z,11.90
2019-05-09T21:21:43.466Z,11.87
2019-05-09T21:24:12.914Z,11.83
2019-05-09T21:26:42.506Z,11.76
2019-05-09T21:29:11.853Z,11.71
2019-05-09T21:31:41.172Z,11.66
2019-05-09T21:34:10.495Z,11.62
2019-05-09T21:36:39.638Z,11.58
2019-05-09T21:39:08.794Z,11.56
2019-05-09T21:41:37.970Z,10.78
2019-05-09T21:44:07.260Z,11.57
2019-05-09T21:46:36.406Z,11.58
2019-05-09T21:49:05.535Z,11.55
2019-05-09T21:51:34.687Z,11.54
2019-05-09T21:54:03.806Z,11.51
2019-05-09T21:56:32.969Z,11.51
2019-05-09T21:59:02.136Z,11.51
2019-05-09T22:01:31.317Z,11.52
2019-05-09T22:04:00.535Z,11.52
2019-05-09T22:06:29.776Z,11.50
2019-05-09T22:08:58.924Z,11.51
2019-05-09T22:11:28.052Z,11.48
2019-05-09T22:13:57.211Z,11.47
2019-05-09T22:16:26.383Z,11.47
2019-05-09T22:18:55.545Z,11.45
2019-05-09T22:21:24.688Z,11.40
2019-05-09T22:23:56.735Z,11.38
2019-05-09T22:26:24.691Z,11.35
2019-05-09T22:28:53.958Z,11.32
2019-05-09T22:31:23.082Z,11.29
2019-05-09T22:33:52.246Z,11.31
2019-05-09T22:36:21.374Z,11.27
2019-05-09T22:38:50.529Z,11.25
2019-05-09T22:41:19.691Z,11.21
2019-05-09T22:43:48.803Z,11.19
2019-05-09T22:46:17.934Z,11.15
2019-05-09T22:48:47.096Z,11.13
2019-05-09T22:51:16.364Z,11.05
2019-05-09T22:53:45.488Z,11.02
2019-05-09T22:56:14.669Z,10.98
2019-05-09T22:58:43.755Z,10.96
2019-05-09T23:01:12.886Z,10.97
2019-05-09T23:03:42.050Z,10.98
2019-05-09T23:06:11.187Z,11.01
2019-05-09T23:08:40.308Z,11.00
2019-05-09T23:11:09.456Z,10.98
2019-05-09T23:13:53.857Z,10.98
2019-05-09T23:16:25.161Z,10.97
2019-05-09T23:18:55.024Z,10.95
2019-05-09T23:21:26.117Z,10.95
2019-05-09T23:24:01.283Z,10.96
2019-05-09T23:26:30.456Z,10.95
2019-05-09T23:28:59.675Z,10.97
2019-05-09T23:31:53.789Z,10.97
2019-05-09T23:34:22.929Z,9.98
2019-05-09T23:36:52.069Z,10.91
2019-05-09T23:39:26.058Z,10.86
2019-05-09T23:41:55.176Z,10.85
2019-05-09T23:44:25.084Z,10.84
2019-05-09T23:46:54.215Z,10.81
2019-05-09T23:49:23.402Z,10.80
2019-05-09T23:51:52.561Z,10.80
2019-05-09T23:54:46.661Z,10.81
2019-05-09T23:57:29.263Z,10.82
